createdAt,value
2022-12-15T00:02:20.689Z,0.10
2022-12-15T00:05:27.167Z,0.08
2022-12-15T00:08:33.281Z,0.37
2022-12-15T00:11:39.457Z,0.31
2022-12-15T00:14:45.733Z,0.21
2022-12-15T00:17:51.810Z,0.30
2022-12-15T00:20:59.057Z,0.22
2022-12-15T00:24:05.116Z,0.34
2022-12-15T00:27:11.184Z,0.17
2022-12-15T00:30:17.032Z,0.04
2022-12-15T00:33:30.581Z,0.24
2022-12-15T00:36:36.803Z,0.02
2022-12-15T00:39:24.555Z,0.09
2022-12-15T00:42:12.272Z,0.00
2022-12-15T00:44:59.941Z,0.09
2022-12-15T00:47:47.579Z,0.06
2022-12-15T00:50:53.117Z,0.05
2022-12-15T00:53:59.695Z,0.21
2022-12-15T00:57:06.021Z,0.13
2022-12-15T01:00:12.214Z,0.12
2022-12-15T01:03:18.443Z,0.25
2022-12-15T01:06:31.144Z,0.17
2022-12-15T01:09:37.066Z,0.42
2022-12-15T01:12:43.126Z,0.26
2022-12-15T01:15:51.123Z,0.27
2022-12-15T01:18:57.167Z,0.32
2022-12-15T01:21:44.987Z,0.23
2022-12-15T01:24:32.879Z,0.27
2022-12-15T01:27:20.568Z,-0.05
2022-12-15T01:30:11.092Z,0.35
2022-12-15T01:32:58.792Z,0.28
2022-12-15T01:35:55.984Z,0.38
2022-12-15T01:38:49.345Z,0.18
2022-12-15T01:41:40.021Z,0.42
2022-12-15T01:44:27.762Z,0.20
2022-12-15T01:47:16.172Z,0.29
2022-12-15T01:50:04.372Z,0.28
2022-12-15T01:52:54.445Z,0.40
2022-12-15T01:55:44.582Z,0.53
2022-12-15T01:58:37.012Z,0.22
2022-12-15T02:01:24.959Z,0.25
2022-12-15T02:04:13.053Z,0.28
2022-12-15T02:07:00.744Z,0.20
2022-12-15T02:09:53.757Z,0.42
2022-12-15T02:13:04.569Z,0.25
2022-12-15T02:16:11.236Z,0.20
2022-12-15T02:19:29.893Z,0.17
2022-12-15T02:23:14.405Z,0.19
2022-12-15T02:26:26.213Z,0.12
2022-12-15T02:29:39.695Z,0.23
2022-12-15T02:32:34.148Z,0.14
2022-12-15T02:35:31.047Z,-0.03
2022-12-15T02:38:34.072Z,0.19
2022-12-15T02:41:36.142Z,0.16
2022-12-15T02:44:26.416Z,0.26
2022-12-15T02:47:35.211Z,0.24
2022-12-15T02:51:04.782Z,0.10
2022-12-15T02:54:20.035Z,0.14
2022-12-15T02:57:34.668Z,0.16
2022-12-15T03:00:23.174Z,0.13
2022-12-15T03:03:14.092Z,0.16
2022-12-15T03:06:03.512Z,0.02
2022-12-15T03:08:51.378Z,0.19
2022-12-15T03:11:39.177Z,0.16
2022-12-15T03:14:27.368Z,0.19
2022-12-15T03:17:17.428Z,0.07
2022-12-15T03:20:05.962Z,0.24
2022-12-15T03:22:54.156Z,0.14
2022-12-15T03:25:49.950Z,0.23
2022-12-15T03:28:37.871Z,0.21
2022-12-15T03:31:26.372Z,0.12
2022-12-15T03:34:14.088Z,0.20
2022-12-15T03:37:01.855Z,0.21
2022-12-15T03:39:49.982Z,0.17
2022-12-15T03:42:49.787Z,0.18
2022-12-15T03:45:37.547Z,0.20
2022-12-15T03:48:25.156Z,0.11
2022-12-15T03:51:12.990Z,0.27
2022-12-15T03:54:00.658Z,0.02
2022-12-15T03:56:48.495Z,0.24
2022-12-15T03:59:36.134Z,0.06
2022-12-15T04:02:23.991Z,0.33
2022-12-15T04:05:32.695Z,0.27
2022-12-15T04:08:26.928Z,0.09
2022-12-15T04:11:14.737Z,0.26
2022-12-15T04:14:02.783Z,0.22
2022-12-15T04:16:50.520Z,0.15
2022-12-15T04:19:57.319Z,0.20
2022-12-15T04:22:47.242Z,0.24
2022-12-15T04:25:54.675Z,0.11
2022-12-15T04:29:00.641Z,0.28
2022-12-15T04:32:07.021Z,0.41
2022-12-15T04:35:13.231Z,0.15
2022-12-15T04:38:20.635Z,0.27
2022-12-15T04:41:27.214Z,0.36
2022-12-15T04:44:33.647Z,0.39
2022-12-15T04:47:40.206Z,0.33
2022-12-15T04:50:48.464Z,0.38
2022-12-15T04:54:14.239Z,0.25
2022-12-15T04:57:20.744Z,-0.10
2022-12-15T05:00:30.551Z,0.41
2022-12-15T05:03:39.543Z,0.41
2022-12-15T05:06:46.318Z,0.37
2022-12-15T05:09:52.789Z,0.38
2022-12-15T05:12:58.695Z,0.41
2022-12-15T05:16:04.966Z,0.45
2022-12-15T05:19:11.589Z,0.38
2022-12-15T05:22:17.988Z,0.41
2022-12-15T05:25:24.438Z,0.43
2022-12-15T05:28:30.727Z,0.43
2022-12-15T05:31:36.938Z,0.51
2022-12-15T05:34:27.380Z,0.36
2022-12-15T05:37:15.363Z,0.27
2022-12-15T05:40:03.032Z,0.47
2022-12-15T05:42:35.746Z,0.36
2022-12-15T05:45:23.445Z,0.49
2022-12-15T05:48:11.189Z,0.60
2022-12-15T05:51:07.741Z,0.33
2022-12-15T05:53:55.568Z,0.53
2022-12-15T05:56:43.327Z,0.49
2022-12-15T05:59:31.034Z,0.48
2022-12-15T06:02:18.797Z,0.41
2022-12-15T06:05:07.169Z,0.54
2022-12-15T06:07:54.932Z,0.48
2022-12-15T06:10:42.685Z,0.62
2022-12-15T06:13:32.061Z,0.58
2022-12-15T06:16:21.331Z,0.52
2022-12-15T06:19:11.692Z,0.49
2022-12-15T06:22:01.114Z,0.37
2022-12-15T06:24:48.780Z,0.42
2022-12-15T06:27:38.096Z,0.61
2022-12-15T06:30:26.056Z,0.57
2022-12-15T06:33:14.046Z,0.70
2022-12-15T06:36:07.742Z,0.57
2022-12-15T06:38:58.448Z,0.56
2022-12-15T06:41:47.007Z,0.69
2022-12-15T06:44:34.666Z,0.66
2022-12-15T06:47:22.470Z,0.75
2022-12-15T06:50:10.289Z,0.62
2022-12-15T06:52:59.451Z,0.80
2022-12-15T06:55:48.366Z,0.83
2022-12-15T06:58:36.190Z,0.89
2022-12-15T07:01:24.999Z,1.00
2022-12-15T07:04:12.978Z,1.06
2022-12-15T07:07:02.069Z,1.10
2022-12-15T07:09:49.728Z,0.85
2022-12-15T07:12:37.447Z,0.95
2022-12-15T07:15:25.794Z,0.76
2022-12-15T07:18:13.553Z,1.13
2022-12-15T07:21:06.689Z,1.21
2022-12-15T07:23:56.226Z,1.24
2022-12-15T07:26:46.615Z,1.36
2022-12-15T07:29:37.663Z,1.16
2022-12-15T07:32:25.434Z,1.41
2022-12-15T07:35:13.398Z,1.21
2022-12-15T07:38:01.105Z,1.50
2022-12-15T07:40:49.439Z,1.48
2022-12-15T07:43:37.970Z,1.43
2022-12-15T07:46:26.688Z,1.41
2022-12-15T07:49:14.402Z,1.45
2022-12-15T07:52:02.089Z,1.50
2022-12-15T07:54:53.857Z,1.49
2022-12-15T07:57:42.617Z,1.71
2022-12-15T08:00:34.022Z,1.68
2022-12-15T08:03:22.353Z,1.71
2022-12-15T08:06:15.074Z,1.67
2022-12-15T08:09:05.601Z,1.87
2022-12-15T08:11:59.502Z,1.96
2022-12-15T08:14:52.761Z,2.11
2022-12-15T08:17:46.777Z,2.13
2022-12-15T08:20:39.996Z,2.32
2022-12-15T08:23:29.397Z,2.32
2022-12-15T08:26:26.593Z,2.91
2022-12-15T08:32:28.939Z,3.18
2022-12-15T08:35:46.771Z,3.12
2022-12-15T08:38:24.252Z,2.98
2022-12-15T08:41:24.409Z,3.31
2022-12-15T08:44:12.185Z,3.25
2022-12-15T08:46:59.948Z,3.13
2022-12-15T08:49:53.607Z,3.08
2022-12-15T08:53:00.654Z,3.11
2022-12-15T08:55:50.668Z,2.81
2022-12-15T08:58:38.829Z,2.67
2022-12-15T09:01:28.699Z,2.90
2022-12-15T09:04:17.869Z,3.10
2022-12-15T09:07:05.624Z,2.99
2022-12-15T09:09:59.008Z,3.06
2022-12-15T09:12:50.900Z,2.68
2022-12-15T09:16:07.752Z,2.61
2022-12-15T09:18:51.971Z,2.13
2022-12-15T09:21:40.563Z,2.61
2022-12-15T09:24:34.836Z,2.85
2022-12-15T09:27:23.693Z,2.84
2022-12-15T09:30:11.736Z,2.58
2022-12-15T09:32:59.490Z,2.37
2022-12-15T09:35:51.880Z,2.77
2022-12-15T09:38:43.357Z,2.75
2022-12-15T09:41:37.047Z,2.64
2022-12-15T09:44:30.400Z,2.68
2022-12-15T09:47:37.457Z,2.90
2022-12-15T09:50:32.802Z,3.02
2022-12-15T09:53:53.448Z,3.20
2022-12-15T09:56:54.312Z,3.21
2022-12-15T09:59:56.024Z,3.31
2022-12-15T10:03:32.421Z,3.32
2022-12-15T10:06:57.697Z,3.35
2022-12-15T10:09:47.673Z,3.18
2022-12-15T10:15:56.833Z,3.75
2022-12-15T10:19:16.394Z,3.63
2022-12-15T10:22:31.061Z,3.81
2022-12-15T10:25:30.058Z,4.47
2022-12-15T10:28:45.472Z,4.04
2022-12-15T10:31:56.724Z,4.61
2022-12-15T10:34:44.590Z,4.21
2022-12-15T10:37:32.397Z,4.24
2022-12-15T10:40:50.746Z,4.00
2022-12-15T10:43:44.586Z,4.62
2022-12-15T10:46:34.987Z,4.81
2022-12-15T10:49:26.659Z,4.66
2022-12-15T10:52:32.764Z,4.88
2022-12-15T10:55:39.120Z,5.35
2022-12-15T10:58:29.794Z,5.42
2022-12-15T11:01:25.422Z,5.32
2022-12-15T11:05:05.779Z,4.78
2022-12-15T11:08:14.752Z,4.72
2022-12-15T11:11:26.063Z,4.76
2022-12-15T11:14:17.762Z,4.45
2022-12-15T11:17:07.644Z,4.92
2022-12-15T11:20:03.187Z,5.31
2022-12-15T11:23:02.102Z,5.24
2022-12-15T11:26:06.836Z,5.05
2022-12-15T11:29:10.304Z,4.92
2022-12-15T11:32:06.753Z,5.19
2022-12-15T11:34:55.551Z,5.23
2022-12-15T11:37:52.059Z,5.45
2022-12-15T11:40:43.971Z,5.37
2022-12-15T11:44:07.017Z,5.58
2022-12-15T11:47:04.829Z,5.58
2022-12-15T11:50:08.835Z,5.49
2022-12-15T11:53:35.861Z,5.64
2022-12-15T11:56:41.785Z,5.43
2022-12-15T11:59:32.228Z,5.57
2022-12-15T12:02:34.353Z,5.39
2022-12-15T12:05:38.444Z,5.62
2022-12-15T12:08:59.214Z,5.66
2022-12-15T12:12:05.310Z,5.70
2022-12-15T12:15:01.987Z,5.76
2022-12-15T12:17:56.227Z,5.77
2022-12-15T12:20:50.258Z,5.60
2022-12-15T12:24:10.134Z,5.54
2022-12-15T12:27:19.201Z,5.59
2022-12-15T12:30:15.463Z,5.63
2022-12-15T12:33:03.049Z,5.71
2022-12-15T12:36:00.671Z,5.77
2022-12-15T12:38:56.345Z,5.62
2022-12-15T12:41:58.586Z,5.53
2022-12-15T12:44:46.475Z,5.76
2022-12-15T12:47:38.879Z,5.73
2022-12-15T12:50:31.135Z,5.68
2022-12-15T12:53:33.454Z,5.87
2022-12-15T12:56:48.829Z,5.70
2022-12-15T12:59:41.715Z,5.49
2022-12-15T13:02:41.335Z,5.58
2022-12-15T13:05:33.828Z,5.65
2022-12-15T13:12:20.922Z,5.32
2022-12-15T13:15:18.923Z,5.20
2022-12-15T13:18:19.060Z,5.17
2022-12-15T13:21:36.184Z,5.07
2022-12-15T13:24:35.995Z,4.96
2022-12-15T13:27:36.946Z,4.93
2022-12-15T13:30:24.891Z,4.96
2022-12-15T13:33:19.453Z,4.86
2022-12-15T13:36:08.036Z,4.89
2022-12-15T13:38:56.519Z,4.88
2022-12-15T13:45:11.751Z,4.93
2022-12-15T13:48:01.163Z,4.81
2022-12-15T13:51:02.814Z,4.72
2022-12-15T13:54:12.210Z,4.68
2022-12-15T13:57:10.237Z,4.44
2022-12-15T14:00:20.532Z,4.53
2022-12-15T14:03:15.066Z,4.53
2022-12-15T14:06:05.755Z,4.49
2022-12-15T14:08:53.697Z,4.35
2022-12-15T14:11:53.077Z,4.35
2022-12-15T14:14:52.789Z,4.28
2022-12-15T14:17:49.161Z,4.13
2022-12-15T14:20:41.526Z,4.12
2022-12-15T14:23:40.791Z,4.07
2022-12-15T14:26:31.259Z,3.98
2022-12-15T14:29:19.171Z,4.05
2022-12-15T14:32:10.480Z,3.88
2022-12-15T14:34:58.231Z,3.66
2022-12-15T14:37:46.002Z,3.73
2022-12-15T14:40:38.119Z,3.52
2022-12-15T14:43:29.982Z,3.53
2022-12-15T14:46:20.498Z,3.46
2022-12-15T14:49:10.961Z,3.42
2022-12-15T14:52:07.704Z,3.19
2022-12-15T14:55:00.984Z,3.20
2022-12-15T14:57:52.647Z,3.03
2022-12-15T15:00:54.102Z,3.05
2022-12-15T15:03:03.796Z,3.50
2022-12-15T15:03:05.497Z,4.90
2022-12-15T15:03:07.287Z,5.53
2022-12-15T15:03:59.776Z,3.06
2022-12-15T15:06:56.473Z,2.97
2022-12-15T15:09:46.399Z,2.80
2022-12-15T15:12:45.256Z,2.69
2022-12-15T15:15:34.692Z,2.66
2022-12-15T15:18:29.983Z,2.41
2022-12-15T15:21:24.137Z,2.29
2022-12-15T15:24:11.845Z,2.43
2022-12-15T15:27:38.614Z,2.50
2022-12-15T15:30:26.473Z,2.27
2022-12-15T15:33:14.592Z,2.29
2022-12-15T15:36:04.426Z,2.15
2022-12-15T15:38:52.454Z,2.24
2022-12-15T15:41:42.134Z,2.28
2022-12-15T15:44:29.986Z,2.07
2022-12-15T15:47:27.494Z,1.97
2022-12-15T15:50:18.091Z,2.19
2022-12-15T15:53:05.848Z,2.16
2022-12-15T15:55:56.185Z,2.07
2022-12-15T15:58:47.146Z,2.05
2022-12-15T16:01:34.896Z,1.94
2022-12-15T16:04:26.862Z,1.91
2022-12-15T16:07:25.043Z,1.90
2022-12-15T16:10:21.017Z,1.85
2022-12-15T16:13:13.675Z,1.81
2022-12-15T16:16:05.398Z,1.68
2022-12-15T16:18:57.269Z,1.64
2022-12-15T16:21:45.012Z,1.82
2022-12-15T16:24:35.080Z,1.79
2022-12-15T16:27:25.861Z,1.67
2022-12-15T16:30:27.073Z,1.75
2022-12-15T16:33:15.442Z,1.79
2022-12-15T16:36:14.238Z,1.62
2022-12-15T16:39:04.839Z,1.70
2022-12-15T16:41:54.297Z,1.63
2022-12-15T16:44:52.527Z,1.62
2022-12-15T16:47:40.983Z,1.57
2022-12-15T16:50:38.116Z,1.63
2022-12-15T16:53:29.337Z,1.46
2022-12-15T16:56:16.961Z,1.42
2022-12-15T16:59:32.073Z,1.44
2022-12-15T17:02:29.858Z,1.54
2022-12-15T17:05:18.595Z,1.49
2022-12-15T17:08:07.767Z,1.46
2022-12-15T17:10:55.669Z,1.56
2022-12-15T17:13:48.303Z,1.59
2022-12-15T17:16:36.588Z,1.48
2022-12-15T17:19:24.296Z,1.39
2022-12-15T17:22:16.130Z,1.46
2022-12-15T17:25:05.310Z,1.42
2022-12-15T17:27:56.462Z,1.42
2022-12-15T17:30:45.581Z,1.39
2022-12-15T17:33:36.247Z,1.28
2022-12-15T17:36:27.706Z,1.41
2022-12-15T17:39:18.407Z,1.32
2022-12-15T17:42:32.760Z,1.37
2022-12-15T17:45:24.693Z,1.31
2022-12-15T17:48:13.978Z,1.28
2022-12-15T17:51:01.973Z,1.32
2022-12-15T17:53:49.793Z,1.30
2022-12-15T17:56:39.895Z,1.25
2022-12-15T17:59:27.615Z,1.28
2022-12-15T18:02:15.802Z,1.26
2022-12-15T18:05:03.677Z,1.25
2022-12-15T18:07:56.228Z,1.18
2022-12-15T18:10:45.281Z,1.18
2022-12-15T18:13:36.118Z,1.17
2022-12-15T18:16:24.051Z,1.14
2022-12-15T18:19:12.942Z,1.09
2022-12-15T18:22:01.462Z,1.06
2022-12-15T18:24:51.401Z,1.02
2022-12-15T18:27:39.109Z,0.93
2022-12-15T18:30:27.484Z,1.21
2022-12-15T18:33:15.369Z,1.12
2022-12-15T18:36:03.135Z,1.10
2022-12-15T18:38:51.636Z,1.19
2022-12-15T18:41:39.430Z,1.11
2022-12-15T18:44:31.488Z,0.94
2022-12-15T18:47:22.426Z,0.83
2022-12-15T18:50:14.995Z,1.00
2022-12-15T18:53:04.355Z,0.99
2022-12-15T18:55:52.079Z,0.92
2022-12-15T18:58:40.306Z,0.95
2022-12-15T19:01:28.113Z,0.96
2022-12-15T19:04:16.240Z,0.69
2022-12-15T19:07:06.777Z,0.80
2022-12-15T19:09:55.141Z,0.87
2022-12-15T19:12:42.858Z,0.76
2022-12-15T19:15:30.814Z,0.64
2022-12-15T19:18:39.193Z,0.82
2022-12-15T19:21:50.347Z,0.81
2022-12-15T19:24:56.373Z,0.79
2022-12-15T19:27:48.436Z,0.82
2022-12-15T19:30:41.994Z,0.56
2022-12-15T19:33:30.563Z,0.74
2022-12-15T19:36:24.461Z,0.65
2022-12-15T19:39:23.366Z,0.52
2022-12-15T19:42:31.995Z,0.59
2022-12-15T19:45:22.726Z,0.49
2022-12-15T19:48:12.261Z,0.79
2022-12-15T19:50:59.936Z,0.61
2022-12-15T19:53:49.008Z,0.53
2022-12-15T19:56:36.802Z,0.59
2022-12-15T19:59:27.027Z,0.38
2022-12-15T20:02:19.470Z,0.49
2022-12-15T20:05:07.865Z,0.57
2022-12-15T20:07:57.056Z,0.60
2022-12-15T20:10:44.691Z,0.60
2022-12-15T20:13:32.723Z,0.64
2022-12-15T20:16:21.667Z,0.74
2022-12-15T20:19:09.718Z,0.64
2022-12-15T20:21:57.884Z,0.71
2022-12-15T20:24:46.691Z,0.70
2022-12-15T20:27:34.431Z,0.71
2022-12-15T20:30:24.515Z,0.64
2022-12-15T20:33:13.218Z,0.60
2022-12-15T20:36:00.906Z,0.64
2022-12-15T20:38:48.871Z,0.74
2022-12-15T20:41:36.496Z,0.62
2022-12-15T20:44:24.822Z,0.69
2022-12-15T20:47:24.054Z,0.73
2022-12-15T20:50:28.771Z,0.74
2022-12-15T20:53:22.081Z,0.77
2022-12-15T20:56:09.814Z,0.69
2022-12-15T20:58:58.661Z,0.86
2022-12-15T21:01:47.197Z,0.55
2022-12-15T21:04:35.373Z,0.94
2022-12-15T21:07:23.211Z,0.79
2022-12-15T21:10:13.096Z,0.82
2022-12-15T21:13:00.921Z,0.88
2022-12-15T21:15:49.057Z,0.66
2022-12-15T21:19:18.700Z,0.84
2022-12-15T21:21:49.560Z,0.79
2022-12-15T21:24:39.861Z,0.83
2022-12-15T21:27:27.587Z,0.95
2022-12-15T21:30:17.702Z,0.92
2022-12-15T21:33:14.932Z,0.65
2022-12-15T21:36:03.126Z,0.93
2022-12-15T21:38:52.740Z,0.98
2022-12-15T21:41:43.409Z,0.92
2022-12-15T21:44:31.066Z,0.98
2022-12-15T21:47:52.144Z,0.84
2022-12-15T21:50:43.449Z,0.64
2022-12-15T21:53:31.156Z,0.86
2022-12-15T21:56:21.323Z,0.99
2022-12-15T21:59:14.717Z,1.03
2022-12-15T22:02:15.882Z,0.98
2022-12-15T22:05:03.795Z,1.13
2022-12-15T22:07:52.423Z,1.04
2022-12-15T22:10:40.207Z,1.23
2022-12-15T22:13:27.909Z,1.15
2022-12-15T22:16:16.082Z,1.27
2022-12-15T22:19:09.094Z,1.19
2022-12-15T22:21:56.821Z,1.27
2022-12-15T22:24:44.903Z,1.19
2022-12-15T22:27:34.325Z,1.19
2022-12-15T22:30:26.783Z,1.27
2022-12-15T22:33:21.923Z,1.32
2022-12-15T22:36:09.765Z,1.11
2022-12-15T22:38:57.767Z,1.35
2022-12-15T22:41:50.193Z,1.26
2022-12-15T22:44:38.256Z,1.24
2022-12-15T22:47:25.912Z,1.25
2022-12-15T22:50:20.351Z,1.39
2022-12-15T22:53:18.433Z,1.31
2022-12-15T22:56:30.828Z,1.24
2022-12-15T22:59:27.255Z,1.35
2022-12-15T23:02:14.913Z,1.24
2022-12-15T23:05:02.672Z,1.30
2022-12-15T23:07:50.785Z,1.24
2022-12-15T23:10:57.953Z,1.28
2022-12-15T23:13:45.774Z,1.10
2022-12-15T23:16:34.485Z,1.25
2022-12-15T23:19:25.226Z,1.29
2022-12-15T23:22:14.340Z,1.05
2022-12-15T23:25:02.089Z,1.13
2022-12-15T23:27:49.832Z,1.02
2022-12-15T23:30:38.399Z,0.99
2022-12-15T23:33:28.307Z,1.21
2022-12-15T23:36:16.207Z,1.08
2022-12-15T23:39:04.076Z,1.03
2022-12-15T23:41:51.792Z,1.10
2022-12-15T23:44:39.779Z,1.07
2022-12-15T23:47:27.514Z,1.02
2022-12-15T23:50:15.383Z,1.02
2022-12-15T23:53:04.553Z,1.14
2022-12-15T23:55:52.175Z,1.14
2022-12-15T23:58:42.652Z,1.12
